Terminal Aerodrome Forecast
Issued by NWS

Home | Current Version | Previous Version | Text Only | Print | Product List | Glossary On
Versions: 1 2 3 4 5 6 7 8 9 10 11 12 13 14 15 16 17 18
000
FTUS42 TJSJ 292300 RRA
TAFKPK
TAF
TKPK 292342Z 3000/3024 06010KT P6SM SCT021
      TEMPO 3000/3002 03010KT 6SM -SHRA SCT016
      AMD NOT SKED 3002/3011=

USA.gov is the U.S. government's official web portal to all federal, state and local government web resources and services.